Albury
Weather
Information

and Archive.
Albury Local Internet Skycam This service provided and funded by Albury Local Internet

Help keep our weatherstation running:

Lavington Weatherstation live data - Conditions of Use

Last updated on 20-Apr-2014 at 23:18:07
Temperature
  Currently  8.6 Degrees C
  Apparent Temperature ("Wind Chill") is 6.3 degrees C
  Today has ranged from  0.0 at 10:42 to 15.3 at 14:57
  Yesterday ranged from  6.2 at 06:33 to 16.6 at 15:07
Wind
  Now:    7.2kmh, gusting to   8.6kmh from 97 degrees ( E )
  Hour:   6.6kmh, gusting to  10.1kmh
Rainfall
   0.0mm Midnight to Midnight (ie, yesterday)
   0.0mm Since Midnight (ie, so far today)
   0.0mm 9am yesterday to 9am today
 127.4mm Total this month
Misc items
  Relative humidity is 83%
  Dewpoint is 5.9 deg C
  Estimated Cloudbase is 1100 feet
  Barometric Pressure is 1020.0 mbar
  Solar Insolation: 10 W/m^2

Last 24 hours Temperature Graph (click graph for history)
temperature

Last 24 hours Dynamic Wind display (click image for 4-hour image):
Wind Rose

Current Yarrawonga Weather Radar and Infrared Satellite Images from the BOM.

Hourly summaries in the tables below are cumulative and peak values
for the preceding hour, and instantaneous values at the hour.
So far today, 20-Apr-2014
Time   Barom.  Wind + Gust    Direction   RH   Rain    Temp.  Minimum    Maximum
01:00  1017.0   0.2   5.8kmh   83 ( E )   98%  0.0mm    7.2   7.3@00:57  8.2@00:00
02:00  1017.0   0.0   0.0kmh   82 ( E )  100%  0.0mm    6.3   6.2@01:59  7.2@01:00
03:00  1017.0   1.9   7.2kmh   43 ( NE)  100%  0.0mm    7.0   6.2@02:01  7.0@02:57
04:00  1017.0   2.1   7.9kmh   55 ( NE)  100%  0.0mm    5.8   5.5@03:36  7.0@03:00
05:00  1017.0   0.6   5.8kmh   54 ( NE)  100%  0.0mm    6.7   5.8@04:00  7.5@04:08
06:00  1018.0   0.0   0.0kmh   54 ( NE)  100%  0.0mm    6.0   5.7@05:21  6.8@05:01
07:00  1018.0   1.7   7.2kmh   54 ( NE)  100%  0.0mm    6.2   5.5@06:13  6.3@06:27
08:00  1019.0   0.6   7.2kmh   53 ( NE)  100%  0.0mm    6.3   6.0@07:10  7.5@07:33
09:00  1020.0   0.0   0.0kmh  118 (ESE)  100%  0.0mm    8.7   6.2@08:01  8.6@08:59
10:00  1020.0   0.5   8.6kmh  207 (SSW)   95%  0.0mm   11.1   8.7@09:00 10.7@09:39
11:00  1019.0   4.9  10.1kmh  163 (SSE)   88%  0.0mm   12.1   0.0@10:42 11.9@10:36
12:00  1019.0   4.5  11.9kmh  158 (SSE)   79%  0.0mm   13.1   0.0@11:26 13.4@11:18
13:00  1018.0   7.5  14.8kmh  292 (WNW)   66%  0.0mm   14.1  12.9@12:03 14.4@12:38
14:00  1018.0   8.8  16.2kmh  210 (SSW)   64%  0.0mm   14.0   0.0@13:21 14.2@13:54
15:00  1018.0   8.8  15.5kmh  314 ( NW)   68%  0.0mm   14.7   0.0@14:11 15.3@14:57
16:00  1018.0   8.7  20.2kmh  198 (SSW)   64%  0.0mm   13.6  13.1@15:45 15.1@15:24
17:00  1018.0   8.9  14.8kmh  210 (SSW)   58%  0.0mm   13.1  13.1@16:50 13.9@16:18
18:00  1019.0   6.9  14.0kmh  196 (SSW)   61%  0.0mm   12.4  12.4@17:57 13.2@17:02
19:00  1019.0   5.8   9.4kmh  222 ( SW)   62%  0.0mm   12.2  12.1@18:27 12.6@18:17
20:00  1020.0   0.7   7.2kmh  193 (SSW)   64%  0.0mm   12.1  10.4@19:32 12.4@19:03
21:00  1020.0   0.0   5.0kmh  218 ( SW)   70%  0.0mm   10.7  10.8@20:59 12.2@20:04
22:00  1020.0   0.0   0.0kmh  160 (SSE)   79%  0.0mm    9.4   9.0@21:51 10.7@21:00
23:00  1020.0   1.0   7.2kmh  160 (SSE)   80%  0.0mm    8.9   8.9@22:59  9.6@22:05
23:18  1020.0   6.6  10.1kmh  107 (ESE)   83%  0.0mm    8.6   8.5@23:14  8.9@23:00


Summary for yesterday, 19-Apr-2014
Time   Barom.  Wind + Gust    Direction   RH   Rain    Temp.  Minimum    Maximum
01:00  1017.0  10.6  16.9kmh  214 ( SW)   71%  0.0mm   10.2  10.1@00:00 10.4@00:23
02:00  1017.0  10.9  16.9kmh  220 ( SW)   73%  0.0mm    9.1   9.1@01:57 10.2@01:00
03:00  1017.0   9.4  18.0kmh  215 ( SW)   78%  0.0mm    8.1   8.1@02:52  9.1@02:00
04:00  1017.0   5.8  11.9kmh  202 (SSW)   85%  0.0mm    6.8   6.7@03:55  8.1@03:00
05:00  1017.0   3.8   9.4kmh   18 (NNE)   76%  0.0mm    8.6   6.3@04:21  9.3@04:41
06:00  1018.0   0.1   5.8kmh   17 (NNE)   79%  0.0mm    8.4   7.2@05:32  8.9@05:02
07:00  1018.0   0.7  10.1kmh  124 ( SE)   86%  0.0mm    7.2   6.2@06:33  8.4@06:00
08:00  1019.0   0.9  10.1kmh  123 (ESE)   90%  0.0mm    7.7   6.6@07:15  7.7@07:39
09:00  1019.0   4.2   9.4kmh  139 ( SE)   83%  0.0mm    9.4   7.7@08:00  9.4@08:54
10:00  1019.0   6.8  10.8kmh  138 ( SE)   74%  0.0mm   11.0   9.4@09:00 11.1@09:53
11:00  1019.0   5.9  12.6kmh  100 ( E )   61%  0.0mm   13.3  11.0@10:00 14.7@10:58
12:00  1019.0   8.0  17.6kmh  174 ( S )   57%  0.0mm   13.6  13.2@11:01 14.4@11:28
13:00  1018.0   6.4  16.9kmh  194 (SSW)   57%  0.0mm   14.6  13.6@12:00 16.0@12:17
14:00  1017.0   7.8  16.2kmh  222 ( SW)   60%  0.0mm   15.6  13.9@13:04 16.1@13:55
15:00  1017.0   8.5  16.2kmh  242 (WSW)   59%  0.0mm   16.1  14.4@14:07 16.4@14:35
16:00  1017.0   8.6  16.2kmh  313 ( NW)   58%  0.0mm   15.7  15.4@15:17 16.6@15:07
17:00  1017.0   8.8  19.4kmh  201 (SSW)   61%  0.0mm   14.6  14.7@16:59 15.9@16:01
18:00  1017.0   6.2  10.8kmh  249 (WSW)   69%  0.0mm   12.2  12.2@17:50 14.6@17:00
19:00  1017.0   5.3  10.1kmh  274 ( W )   72%  0.0mm   12.0  11.6@18:53 12.4@18:04
20:00  1017.0   5.9  10.1kmh  270 ( W )   76%  0.0mm   11.8  11.4@19:04 12.1@19:10
21:00  1018.0   5.0  10.1kmh  226 ( SW)   77%  0.0mm   11.2  10.7@20:48 12.1@20:14
22:00  1018.0   0.7   6.5kmh  271 ( W )   79%  0.0mm   10.9  10.2@21:56 11.4@21:17
23:00  1017.0   0.0   0.0kmh  189 ( S )   86%  0.0mm    9.3   9.1@22:33 10.9@22:00
00:00  1017.0   0.0   0.0kmh  173 ( S )   92%  0.0mm    8.2   8.1@23:58  9.4@23:02